createdAt,value
2023-05-17T00:00:42.720Z,13.67
2023-05-17T00:03:11.964Z,13.70
2023-05-17T00:05:41.356Z,13.71
2023-05-17T00:08:10.236Z,13.72
2023-05-17T00:10:39.139Z,13.76
2023-05-17T00:13:08.002Z,13.75
2023-05-17T00:15:38.861Z,13.75
2023-05-17T00:18:07.956Z,13.78
2023-05-17T00:20:36.852Z,13.80
2023-05-17T00:23:05.743Z,13.77
2023-05-17T00:25:34.541Z,13.83
2023-05-17T00:28:03.392Z,13.83
2023-05-17T00:30:32.256Z,13.83
2023-05-17T00:33:02.500Z,13.86
2023-05-17T00:35:31.520Z,13.88
2023-05-17T00:38:00.365Z,13.91
2023-05-17T00:40:29.445Z,13.92
2023-05-17T00:42:58.236Z,13.92
2023-05-17T00:45:27.226Z,13.92
2023-05-17T00:47:56.391Z,13.94
2023-05-17T00:50:26.883Z,13.93
2023-05-17T00:52:57.226Z,13.86
2023-05-17T00:55:26.451Z,13.95
2023-05-17T00:57:56.258Z,13.93
2023-05-17T01:00:25.059Z,13.91
2023-05-17T01:02:54.110Z,13.92
2023-05-17T01:05:23.090Z,13.92
2023-05-17T01:07:53.372Z,13.93
2023-05-17T01:10:22.847Z,13.94
2023-05-17T01:13:05.284Z,13.94
2023-05-17T01:15:46.983Z,13.92
2023-05-17T01:18:23.556Z,13.92
2023-05-17T01:20:56.607Z,13.90
2023-05-17T01:23:46.119Z,13.90
2023-05-17T01:26:22.633Z,13.91
2023-05-17T01:28:59.074Z,13.89
2023-05-17T01:31:29.484Z,13.89
2023-05-17T01:33:59.134Z,13.83
2023-05-17T01:36:30.009Z,13.85
2023-05-17T01:39:00.923Z,13.84
2023-05-17T01:41:36.019Z,13.84
2023-05-17T01:44:14.427Z,13.83
2023-05-17T01:46:44.553Z,13.85
2023-05-17T01:49:19.674Z,13.86
2023-05-17T01:51:52.588Z,13.87
2023-05-17T01:54:30.087Z,13.83
2023-05-17T01:57:01.904Z,13.89
2023-05-17T01:59:35.595Z,13.88
2023-05-17T02:02:09.204Z,13.69
2023-05-17T02:04:38.584Z,13.89
2023-05-17T02:07:07.376Z,13.88
2023-05-17T02:09:36.358Z,13.88
2023-05-17T02:12:05.408Z,13.89
2023-05-17T02:14:37.740Z,13.88
2023-05-17T02:17:07.650Z,13.89
2023-05-17T02:19:36.549Z,13.89
2023-05-17T02:22:05.642Z,13.90
2023-05-17T02:24:34.513Z,13.90
2023-05-17T02:27:03.772Z,13.93
2023-05-17T02:29:33.824Z,13.85
2023-05-17T02:32:04.040Z,13.89
2023-05-17T02:34:32.923Z,13.89
2023-05-17T02:37:01.676Z,13.90
2023-05-17T02:39:30.672Z,13.88
2023-05-17T02:41:59.628Z,13.85
2023-05-17T02:44:28.548Z,13.88
2023-05-17T02:46:57.364Z,13.88
2023-05-17T02:49:28.073Z,13.90
2023-05-17T02:51:56.962Z,13.90
2023-05-17T02:54:25.817Z,13.92
2023-05-17T02:56:54.896Z,13.94
2023-05-17T02:59:24.134Z,13.92
2023-05-17T03:01:52.924Z,13.91
2023-05-17T03:04:21.869Z,13.91
2023-05-17T03:06:52.356Z,13.91
2023-05-17T03:09:21.905Z,13.93
2023-05-17T03:11:52.565Z,13.93
2023-05-17T03:14:28.980Z,13.94
2023-05-17T03:16:57.892Z,13.96
2023-05-17T03:19:26.933Z,13.96
2023-05-17T03:21:58.177Z,13.96
2023-05-17T03:24:28.000Z,13.93
2023-05-17T03:26:56.915Z,13.99
2023-05-17T03:29:25.794Z,13.99
2023-05-17T03:31:55.186Z,14.00
2023-05-17T03:34:24.412Z,13.99
2023-05-17T03:36:53.565Z,14.01
2023-05-17T03:39:23.772Z,14.01
2023-05-17T03:41:52.765Z,13.99
2023-05-17T03:44:23.797Z,14.00
2023-05-17T03:46:54.265Z,14.00
2023-05-17T03:49:25.055Z,14.01
2023-05-17T03:51:55.447Z,14.00
2023-05-17T03:54:25.862Z,13.99
2023-05-17T03:56:54.721Z,13.98
2023-05-17T03:59:23.527Z,13.95
2023-05-17T04:01:52.788Z,13.97
2023-05-17T04:04:21.641Z,13.95
2023-05-17T04:06:50.581Z,13.94
2023-05-17T04:09:20.147Z,13.95
2023-05-17T04:11:50.139Z,13.93
2023-05-17T04:14:19.864Z,13.93
2023-05-17T04:16:48.820Z,13.94
2023-05-17T04:19:17.777Z,13.94
2023-05-17T04:21:46.798Z,13.91
2023-05-17T04:24:15.701Z,13.93
2023-05-17T04:26:44.642Z,13.94
2023-05-17T04:29:19.040Z,13.94
2023-05-17T04:31:49.927Z,13.95
2023-05-17T04:34:19.511Z,13.95
2023-05-17T04:36:48.688Z,13.95
2023-05-17T04:39:17.642Z,13.95
2023-05-17T04:41:46.739Z,13.95
2023-05-17T04:44:20.732Z,13.96
2023-05-17T04:46:49.759Z,13.96
2023-05-17T04:49:19.057Z,13.97
2023-05-17T04:51:48.084Z,13.99
2023-05-17T04:54:16.932Z,13.96
2023-05-17T04:56:46.040Z,13.99
2023-05-17T04:59:24.015Z,14.00
2023-05-17T05:01:52.968Z,14.03
2023-05-17T05:04:21.839Z,14.00
2023-05-17T05:06:51.610Z,13.98
2023-05-17T05:09:24.096Z,14.02
2023-05-17T05:11:53.257Z,13.99
2023-05-17T05:14:23.771Z,14.00
2023-05-17T05:16:53.422Z,13.99
2023-05-17T05:19:22.352Z,13.99
2023-05-17T05:21:53.425Z,14.00
2023-05-17T05:24:22.320Z,14.00
2023-05-17T05:26:51.207Z,14.01
2023-05-17T05:29:21.750Z,14.01
2023-05-17T05:31:52.094Z,14.02
2023-05-17T05:34:21.048Z,14.03
2023-05-17T05:36:51.037Z,14.05
2023-05-17T05:39:19.878Z,14.08
2023-05-17T05:41:48.800Z,14.11
2023-05-17T05:44:17.861Z,14.12
2023-05-17T05:46:46.766Z,14.09
2023-05-17T05:49:17.553Z,14.06
2023-05-17T05:51:46.450Z,14.04
2023-05-17T05:54:16.563Z,14.05
2023-05-17T05:56:45.275Z,14.06
2023-05-17T05:59:16.328Z,14.07
2023-05-17T06:01:46.986Z,14.10
2023-05-17T06:04:15.920Z,14.12
2023-05-17T06:06:46.309Z,14.15
2023-05-17T06:09:15.291Z,14.13
2023-05-17T06:11:44.061Z,14.20
2023-05-17T06:14:12.978Z,14.24
2023-05-17T06:16:41.626Z,14.27
2023-05-17T06:19:10.600Z,14.30
2023-05-17T06:21:39.293Z,14.31
2023-05-17T06:24:10.182Z,14.34
2023-05-17T06:26:41.893Z,14.35
2023-05-17T06:29:10.948Z,14.38
2023-05-17T06:31:39.708Z,14.35
2023-05-17T06:34:08.513Z,14.37
2023-05-17T06:36:38.601Z,14.37
2023-05-17T06:39:09.538Z,14.37
2023-05-17T06:41:38.297Z,14.37
2023-05-17T06:44:07.702Z,14.38
2023-05-17T06:46:36.534Z,14.38
2023-05-17T06:49:08.297Z,14.37
2023-05-17T06:51:37.218Z,14.38
2023-05-17T06:54:05.998Z,14.31
2023-05-17T06:56:36.138Z,14.39
2023-05-17T07:02:14.511Z,14.36
2023-05-17T07:04:43.937Z,14.34
2023-05-17T07:07:12.913Z,14.32
2023-05-17T07:09:41.662Z,14.31
2023-05-17T07:12:11.974Z,14.32
2023-05-17T07:14:40.895Z,14.30
2023-05-17T07:17:09.744Z,14.34
2023-05-17T07:19:38.724Z,14.38
2023-05-17T07:22:07.695Z,14.40
2023-05-17T07:24:36.627Z,14.42
2023-05-17T07:27:05.626Z,14.45
2023-05-17T07:29:36.205Z,14.49
2023-05-17T07:32:05.496Z,14.49
2023-05-17T07:34:34.340Z,14.49
2023-05-17T07:37:03.081Z,14.46
2023-05-17T07:39:31.948Z,14.45
2023-05-17T07:42:00.652Z,14.45
2023-05-17T07:44:29.889Z,14.40
2023-05-17T07:47:00.323Z,14.38
2023-05-17T07:49:29.387Z,14.38
2023-05-17T07:51:58.269Z,14.39
2023-05-17T07:54:29.419Z,14.38
2023-05-17T07:56:59.956Z,14.37
2023-05-17T07:59:29.756Z,14.37
2023-05-17T08:01:59.886Z,14.36
2023-05-17T08:04:28.780Z,14.34
2023-05-17T08:06:58.008Z,14.30
2023-05-17T08:09:26.909Z,14.32
2023-05-17T08:11:55.830Z,14.35
2023-05-17T08:14:26.191Z,14.27
2023-05-17T08:16:54.970Z,14.33
2023-05-17T08:19:26.817Z,14.20
2023-05-17T08:21:56.388Z,14.24
2023-05-17T08:24:25.157Z,14.15
2023-05-17T08:26:54.817Z,14.18
2023-05-17T08:29:23.151Z,14.22
2023-05-17T08:31:52.742Z,14.19
2023-05-17T08:34:21.875Z,14.15
2023-05-17T08:36:53.777Z,14.07
2023-05-17T08:39:22.727Z,14.02
2023-05-17T08:41:51.797Z,13.89
2023-05-17T08:44:22.108Z,13.95
2023-05-17T08:46:54.047Z,13.92
2023-05-17T08:49:26.026Z,13.87
2023-05-17T08:51:57.106Z,13.84
2023-05-17T08:54:26.258Z,13.83
2023-05-17T08:57:00.100Z,13.81
2023-05-17T08:59:34.120Z,13.70
2023-05-17T09:02:03.901Z,13.62
2023-05-17T09:04:33.391Z,13.56
2023-05-17T09:07:03.533Z,13.51
2023-05-17T09:09:32.746Z,13.47
2023-05-17T09:12:02.862Z,13.46
2023-05-17T09:14:35.931Z,13.38
2023-05-17T09:17:04.796Z,13.30
2023-05-17T09:19:33.637Z,13.22
2023-05-17T09:22:06.246Z,13.16
2023-05-17T09:24:35.041Z,13.09
2023-05-17T09:27:06.122Z,13.05
2023-05-17T09:29:36.874Z,12.97
2023-05-17T09:32:18.012Z,12.91
2023-05-17T09:34:48.456Z,12.82
2023-05-17T09:37:20.309Z,12.77
2023-05-17T09:39:50.277Z,12.76
2023-05-17T09:42:19.222Z,12.74
2023-05-17T09:44:54.856Z,12.64
2023-05-17T09:47:25.872Z,12.58
2023-05-17T09:49:55.437Z,12.57
2023-05-17T09:52:27.153Z,12.58
2023-05-17T09:54:57.898Z,12.56
2023-05-17T09:57:28.803Z,12.54
2023-05-17T09:59:59.249Z,12.55
2023-05-17T10:02:30.288Z,12.57
2023-05-17T10:04:59.752Z,12.54
2023-05-17T10:07:30.703Z,12.50
2023-05-17T10:10:00.257Z,12.51
2023-05-17T10:12:31.171Z,12.57
2023-05-17T10:15:00.478Z,12.58
2023-05-17T10:17:30.280Z,12.59
2023-05-17T10:20:00.053Z,12.58
2023-05-17T10:22:30.596Z,12.60
2023-05-17T10:25:00.257Z,12.54
2023-05-17T10:27:29.461Z,12.57
2023-05-17T10:29:59.838Z,12.54
2023-05-17T10:32:30.506Z,12.51
2023-05-17T10:35:10.623Z,12.48
2023-05-17T10:37:43.467Z,12.48
2023-05-17T10:40:14.718Z,12.42
2023-05-17T10:42:46.145Z,12.38
2023-05-17T10:45:15.990Z,12.40
2023-05-17T10:47:46.370Z,12.41
2023-05-17T10:50:15.550Z,12.35
2023-05-17T10:52:50.239Z,12.43
2023-05-17T10:55:22.638Z,12.44
2023-05-17T10:58:13.555Z,12.42
2023-05-17T11:00:43.313Z,12.39
2023-05-17T11:03:17.344Z,12.35
2023-05-17T11:06:12.801Z,12.37
2023-05-17T11:09:09.770Z,12.37
2023-05-17T11:11:38.717Z,12.39
2023-05-17T11:14:08.810Z,12.36
2023-05-17T11:16:39.026Z,12.37
2023-05-17T11:19:10.287Z,12.41
2023-05-17T11:21:47.750Z,12.43
2023-05-17T11:24:27.293Z,12.39
2023-05-17T11:26:57.027Z,12.43
2023-05-17T11:29:30.275Z,12.44
2023-05-17T11:31:59.255Z,12.39
2023-05-17T11:34:29.162Z,12.36
2023-05-17T11:36:58.142Z,12.12
2023-05-17T11:39:28.421Z,12.31
2023-05-17T11:41:58.949Z,12.32
2023-05-17T11:44:31.946Z,12.28
2023-05-17T11:47:05.045Z,12.34
2023-05-17T11:49:36.900Z,12.37
2023-05-17T11:52:06.625Z,12.36
2023-05-17T11:54:43.292Z,12.39
2023-05-17T11:57:15.088Z,12.40
2023-05-17T11:59:44.691Z,12.37
2023-05-17T12:02:28.221Z,12.40
2023-05-17T12:04:57.592Z,12.40
2023-05-17T12:07:27.021Z,12.39
2023-05-17T12:09:57.508Z,12.36
2023-05-17T12:12:27.593Z,12.39
2023-05-17T12:14:59.046Z,12.28
2023-05-17T12:17:37.248Z,12.38
2023-05-17T12:20:10.295Z,12.35
2023-05-17T12:22:53.709Z,12.13
2023-05-17T12:25:25.953Z,12.39
2023-05-17T12:27:54.739Z,12.39
2023-05-17T12:30:24.428Z,12.42
2023-05-17T12:32:53.554Z,12.38
2023-05-17T12:35:22.758Z,12.42
2023-05-17T12:37:51.649Z,12.50
2023-05-17T12:40:20.594Z,12.51
2023-05-17T12:42:50.877Z,12.51
2023-05-17T12:45:19.797Z,12.51
2023-05-17T12:47:51.350Z,12.53
2023-05-17T12:50:27.739Z,12.45
2023-05-17T12:52:56.890Z,12.51
2023-05-17T12:55:26.422Z,12.46
2023-05-17T12:57:56.404Z,12.43
2023-05-17T13:00:25.587Z,12.47
2023-05-17T13:02:54.526Z,12.56
2023-05-17T13:05:23.844Z,12.59
2023-05-17T13:07:52.799Z,12.63
2023-05-17T13:10:23.206Z,12.68
2023-05-17T13:13:00.680Z,12.72
2023-05-17T13:15:30.544Z,12.61
2023-05-17T13:18:00.505Z,12.62
2023-05-17T13:20:29.740Z,12.43
2023-05-17T13:22:58.820Z,12.63
2023-05-17T13:25:27.721Z,12.58
2023-05-17T13:27:57.002Z,12.57
2023-05-17T13:30:27.391Z,12.59
2023-05-17T13:32:56.666Z,12.58
2023-05-17T13:35:25.596Z,12.61
2023-05-17T13:37:54.827Z,12.61
2023-05-17T13:40:23.879Z,12.54
2023-05-17T13:42:53.072Z,12.48
2023-05-17T13:45:22.030Z,12.50
2023-05-17T13:47:52.182Z,12.49
2023-05-17T13:50:24.335Z,12.53
2023-05-17T13:52:53.186Z,12.57
2023-05-17T13:55:22.160Z,12.61
2023-05-17T13:57:51.195Z,12.58
2023-05-17T14:00:20.723Z,12.55
2023-05-17T14:02:49.714Z,12.63
2023-05-17T14:05:20.473Z,12.62
2023-05-17T14:07:49.437Z,12.66
2023-05-17T14:10:18.610Z,12.66
2023-05-17T14:12:48.095Z,12.55
2023-05-17T14:15:17.452Z,12.56
2023-05-17T14:17:46.567Z,12.55
2023-05-17T14:20:15.688Z,12.53
2023-05-17T14:22:46.436Z,12.50
2023-05-17T14:25:15.345Z,12.51
2023-05-17T14:27:44.217Z,12.53
2023-05-17T14:30:14.785Z,12.50
2023-05-17T14:32:43.889Z,12.45
2023-05-17T14:35:12.857Z,12.39
2023-05-17T14:37:41.691Z,12.39
2023-05-17T14:40:13.038Z,12.37
2023-05-17T14:42:42.183Z,12.30
2023-05-17T14:45:11.165Z,12.28
2023-05-17T14:47:40.110Z,12.26
2023-05-17T14:50:11.404Z,12.24
2023-05-17T14:52:40.442Z,12.02
2023-05-17T14:55:10.222Z,12.18
2023-05-17T14:57:42.364Z,12.21
2023-05-17T15:00:12.390Z,12.18
2023-05-17T15:02:41.368Z,12.17
2023-05-17T15:05:11.183Z,12.14
2023-05-17T15:07:40.197Z,12.13
2023-05-17T15:10:10.085Z,12.16
2023-05-17T15:12:40.407Z,12.22
2023-05-17T15:15:10.509Z,12.24
2023-05-17T15:17:39.442Z,12.23
2023-05-17T15:20:12.140Z,12.17
2023-05-17T15:22:40.960Z,12.18
2023-05-17T15:25:10.072Z,12.16
2023-05-17T15:27:38.883Z,12.20
2023-05-17T15:30:12.605Z,12.18
2023-05-17T15:32:42.712Z,12.18
2023-05-17T15:35:11.746Z,12.22
2023-05-17T15:37:41.183Z,12.23
2023-05-17T15:40:11.424Z,12.20
2023-05-17T15:42:41.194Z,12.14
2023-05-17T15:45:12.139Z,12.12
2023-05-17T15:47:43.552Z,12.08
2023-05-17T15:50:13.300Z,12.08
2023-05-17T15:52:42.252Z,12.05
2023-05-17T15:55:12.849Z,12.04
2023-05-17T15:57:42.732Z,11.95
2023-05-17T16:00:14.289Z,11.94
2023-05-17T16:02:43.320Z,11.88
2023-05-17T16:05:12.152Z,11.86
2023-05-17T16:07:41.185Z,11.80
2023-05-17T16:10:11.480Z,11.83
2023-05-17T16:12:40.404Z,11.83
2023-05-17T16:15:10.551Z,11.76
2023-05-17T16:17:40.933Z,11.76
2023-05-17T16:20:10.619Z,11.79
2023-05-17T16:22:45.242Z,11.78
2023-05-17T16:25:16.991Z,11.70
2023-05-17T16:27:49.665Z,11.80
2023-05-17T16:30:19.255Z,11.78
2023-05-17T16:32:50.083Z,11.74
2023-05-17T16:35:22.451Z,11.74
2023-05-17T16:37:51.694Z,11.73
2023-05-17T16:40:20.562Z,11.69
2023-05-17T16:42:49.636Z,11.67
2023-05-17T16:45:18.638Z,11.64
2023-05-17T16:47:48.913Z,11.65
2023-05-17T16:50:17.779Z,11.62
2023-05-17T16:52:46.569Z,11.63
2023-05-17T16:55:15.391Z,11.59
2023-05-17T16:57:44.370Z,11.59
2023-05-17T17:00:14.336Z,11.58
2023-05-17T17:02:43.346Z,11.57
2023-05-17T17:05:13.662Z,11.58
2023-05-17T17:07:42.824Z,11.56
2023-05-17T17:10:12.397Z,11.45
2023-05-17T17:12:40.986Z,11.53
2023-05-17T17:15:11.012Z,11.54
2023-05-17T17:17:40.244Z,11.52
2023-05-17T17:20:10.390Z,11.55
2023-05-17T17:22:41.681Z,11.56
2023-05-17T17:25:11.601Z,11.55
2023-05-17T17:27:40.403Z,11.53
2023-05-17T17:30:10.147Z,11.45
2023-05-17T17:32:39.344Z,11.48
2023-05-17T17:35:09.561Z,11.49
2023-05-17T17:37:38.808Z,11.50
2023-05-17T17:40:10.991Z,11.48
2023-05-17T17:42:40.822Z,11.47
2023-05-17T17:45:09.889Z,11.47
2023-05-17T17:47:38.833Z,11.45
2023-05-17T17:50:12.100Z,11.44
2023-05-17T17:52:41.350Z,11.41
2023-05-17T17:55:13.581Z,11.39
2023-05-17T17:57:43.048Z,11.35
2023-05-17T18:00:13.295Z,11.34
2023-05-17T18:02:42.279Z,11.36
2023-05-17T18:05:11.922Z,11.30
2023-05-17T18:07:40.511Z,11.23
2023-05-17T18:10:09.936Z,11.23
2023-05-17T18:12:40.354Z,11.23
2023-05-17T18:15:09.784Z,11.17
2023-05-17T18:17:38.636Z,11.16
2023-05-17T18:20:08.939Z,11.15
2023-05-17T18:22:38.184Z,11.15
2023-05-17T18:25:07.631Z,11.15
2023-05-17T18:27:36.976Z,11.09
2023-05-17T18:30:08.232Z,11.05
2023-05-17T18:32:37.236Z,11.03
2023-05-17T18:35:06.737Z,11.01
2023-05-17T18:37:36.021Z,10.99
2023-05-17T18:40:05.530Z,11.01
2023-05-17T18:42:34.439Z,11.01
2023-05-17T18:45:03.304Z,11.00
2023-05-17T18:47:34.873Z,10.99
2023-05-17T18:50:03.865Z,11.02
2023-05-17T18:52:32.623Z,11.03
2023-05-17T18:55:01.539Z,11.02
2023-05-17T18:57:32.167Z,11.03
2023-05-17T19:00:01.547Z,11.03
2023-05-17T19:02:30.770Z,11.04
2023-05-17T19:05:01.268Z,11.02
2023-05-17T19:07:30.129Z,10.98
2023-05-17T19:09:58.982Z,10.95
2023-05-17T19:12:30.340Z,10.98
2023-05-17T19:14:59.251Z,10.98
2023-05-17T19:17:28.089Z,10.96
2023-05-17T19:19:57.363Z,10.96
2023-05-17T19:22:27.579Z,10.97
2023-05-17T19:24:56.452Z,10.97
2023-05-17T19:27:25.285Z,10.98
2023-05-17T19:29:54.222Z,10.97
2023-05-17T19:32:23.075Z,10.96
2023-05-17T19:34:52.003Z,10.98
2023-05-17T19:37:20.750Z,10.98
2023-05-17T19:39:51.009Z,10.97
2023-05-17T19:42:19.879Z,10.91
2023-05-17T19:44:48.621Z,10.98
2023-05-17T19:47:17.431Z,10.98
2023-05-17T19:49:46.323Z,10.98
2023-05-17T19:52:15.374Z,11.00
2023-05-17T19:54:44.212Z,11.03
2023-05-17T19:57:14.573Z,11.04
2023-05-17T19:59:43.424Z,10.99
2023-05-17T20:02:12.316Z,10.97
2023-05-17T20:04:41.411Z,11.03
2023-05-17T20:07:10.348Z,11.08
2023-05-17T20:09:40.005Z,11.09
2023-05-17T20:12:08.924Z,11.09
2023-05-17T20:14:39.089Z,11.13
2023-05-17T20:17:08.021Z,11.15
2023-05-17T20:19:38.625Z,11.17
2023-05-17T20:22:08.165Z,11.18
2023-05-17T20:24:37.025Z,11.22
2023-05-17T20:27:06.101Z,11.24
2023-05-17T20:29:34.936Z,11.27
2023-05-17T20:32:05.681Z,11.29
2023-05-17T20:34:34.843Z,11.29
2023-05-17T20:37:03.710Z,11.30
2023-05-17T20:39:32.646Z,11.29
2023-05-17T20:42:02.684Z,11.28
2023-05-17T20:44:33.434Z,11.20
2023-05-17T20:47:02.944Z,11.30
2023-05-17T20:49:33.278Z,11.30
2023-05-17T20:52:03.675Z,11.32
2023-05-17T20:54:32.748Z,11.34
2023-05-17T20:57:02.429Z,11.37
2023-05-17T20:59:31.644Z,11.36
2023-05-17T21:02:00.519Z,11.40
2023-05-17T21:04:29.416Z,11.40
2023-05-17T21:06:59.843Z,11.39
2023-05-17T21:09:28.776Z,11.39
2023-05-17T21:11:57.570Z,11.36
2023-05-17T21:14:26.506Z,11.40
2023-05-17T21:16:56.268Z,11.40
2023-05-17T21:19:25.339Z,11.38
2023-05-17T21:21:54.297Z,11.41
2023-05-17T21:24:24.567Z,11.40
2023-05-17T21:26:53.818Z,11.43
2023-05-17T21:29:22.592Z,11.44
2023-05-17T21:31:51.452Z,11.41
2023-05-17T21:34:20.256Z,11.39
2023-05-17T21:36:49.153Z,11.42
2023-05-17T21:39:17.921Z,11.44
2023-05-17T21:41:49.511Z,11.43
2023-05-17T21:44:18.313Z,11.42
2023-05-17T21:46:47.083Z,11.45
2023-05-17T21:49:16.346Z,11.47
2023-05-17T21:51:46.397Z,11.46
2023-05-17T21:54:15.401Z,11.45
2023-05-17T21:56:44.148Z,11.46
2023-05-17T21:59:14.333Z,11.49
2023-05-17T22:01:43.208Z,11.49
2023-05-17T22:04:12.321Z,11.47
2023-05-17T22:06:41.084Z,11.48
2023-05-17T22:09:09.971Z,11.45
2023-05-17T22:11:41.947Z,11.44
2023-05-17T22:14:11.821Z,11.48
2023-05-17T22:16:42.078Z,11.47
2023-05-17T22:19:10.920Z,11.46
2023-05-17T22:21:39.748Z,11.48
2023-05-17T22:24:09.192Z,11.49
2023-05-17T22:26:38.023Z,11.53
2023-05-17T22:29:06.878Z,11.53
2023-05-17T22:31:38.277Z,11.54
2023-05-17T22:34:08.662Z,11.50
2023-05-17T22:36:37.575Z,11.52
2023-05-17T22:39:06.475Z,11.54
2023-05-17T22:41:35.360Z,11.57
2023-05-17T22:44:04.194Z,11.59
2023-05-17T22:46:33.525Z,11.60
2023-05-17T22:49:02.522Z,11.59
2023-05-17T22:51:35.285Z,11.62
2023-05-17T22:54:04.472Z,11.62
2023-05-17T22:56:33.445Z,11.64
2023-05-17T22:59:02.256Z,11.65
2023-05-17T23:01:31.083Z,11.58
2023-05-17T23:04:00.180Z,11.66
2023-05-17T23:06:32.699Z,11.67
2023-05-17T23:09:05.383Z,11.64
2023-05-17T23:11:35.644Z,11.64
2023-05-17T23:14:04.485Z,11.63
2023-05-17T23:16:36.234Z,11.64
2023-05-17T23:19:05.276Z,11.64
2023-05-17T23:21:36.541Z,11.63
2023-05-17T23:24:08.194Z,11.62
2023-05-17T23:26:37.168Z,11.61
2023-05-17T23:29:05.935Z,11.60
2023-05-17T23:31:35.260Z,11.61
2023-05-17T23:34:04.583Z,11.62
2023-05-17T23:36:33.380Z,11.62
2023-05-17T23:39:02.208Z,11.60
2023-05-17T23:41:32.604Z,11.56
2023-05-17T23:44:01.859Z,11.56
2023-05-17T23:46:30.783Z,11.53
2023-05-17T23:48:59.724Z,11.54
2023-05-17T23:51:28.621Z,11.55
2023-05-17T23:53:57.551Z,11.59
2023-05-17T23:56:26.848Z,11.61
2023-05-17T23:58:57.098Z,11.60
